No particular awareness of the weather is required.    There are no Weather-warnings

Karlovy Vary SW more information Karlovy Vary SW


Karlovy Vary ESE more information Karlovy Vary ESE


Thunder radar more information blitzortung!


Rain radar more information rain snow radar


Visit our other weather sites:

Template documentation
and downloads

My WDL Site

WX

iWDL

MeteoWare Live



Nearby METAR Reports

  
LKKV - Karlovy Vary, Czech Republic
Distance from station: ESE 6km
Updated: 22.06.2018 02:00
Clear
Clear  
 Wind from WNW
Wind: WNW 11 km/h
Temperature:  9°C
Wind Chill:  7°C
Dew Point:  2°C
Humidity:  62%
Barometer:  1019 hPa
Summary:  Clear
Visibility:  greater than 10 km
2018/06/22 00:00 LKKV 220000Z 29006KT CAVOK 09/02 Q1019
LKLN - Plzeň, Czech Republic
Distance from station: SSE 68km
Updated: 22.06.2018 02:00
Clear
Clear  
 Wind from varies
Wind: varies 4 km/h
Temperature:  13°C
Dew Point:  3°C
Humidity:  51%
Barometer:  1019 hPa
Summary:  Clear
Visibility:  greater than 10 km
2018/06/22 00:00 LKLN 220000Z AUTO VRB02KT CAVOK 13/03 Q1019
EDAC - Altenburg-Nobitz, Germany
Distance from station: NNW 87km
Updated: 22.06.2018 02:20
Few Clouds
Few Clouds  
 Wind from W
Wind: W 19 km/h
Temperature:  11°C
Dew Point:  5°C
Humidity:  67%
Barometer:  1019 hPa
Clouds:  Few Clouds
Visibility:  10 km
Cloud details:  Few Clouds 2012 m
2018/06/22 00:20 EDAC 220020Z AUTO 28010KT 250V310 9999 // FEW066/// 11/05 Q1019
ETIC - Grafenwöhr, Germany
Distance from station: SW 88km
Updated: 22.06.2018 01:56
Clear
Clear  
 Wind from calm
Wind: Calm
Temperature:  9°C
Dew Point:  3°C
Humidity:  66%
Barometer:  1020.3 hPa
Clouds:  Clear
Visibility:  10 km
2018/06/21 23:56 ETIC 212356Z AUTO 00000KT 9999 CLR 09/03 A3013 RMK AO2 SLP195 T00940029 10205 20094 52014 $
LKPR - Prague/Ruzyne, Czech Republic
Distance from station: E 103km
Updated: 22.06.2018 02:30
Clear
Clear  
 Wind from W
Wind: W 9 km/h
Temperature:  10°C
Wind Chill:  9°C
Dew Point:  4°C
Humidity:  67%
Barometer:  1019 hPa
Summary:  Clear
Visibility:  greater than 10 km
2018/06/22 00:30 LKPR 220030Z 28005KT CAVOK 10/04 Q1019 NOSIG
EDQM - Hof, Germany
Distance from station: W 71km
Updated: 21.06.2018 19:50
NOT Current
Clear
Clear  
 Wind from NW
Wind: NW 15 km/h
Temperature:  16°C
Dew Point:  3°C
Humidity:  42%
Barometer:  1016 hPa
Summary:  Clear
Visibility:  greater than 10 km
2018/06/21 17:50 EDQM 211750Z 32008KT 260V030 CAVOK 16/03 Q1016

Script developed by  Saratoga-weather.org Adapted for the template by  Weerstation Leuven

Equipment we use:


Weather-station
TFA Nexus

Weather-program
Meteohub

Weather-server
SilverStone DC01

Provider
WIA

TFA Nexus

Meteohub

SilverStone DC01

WIA